createdAt,value
2022-12-29T00:00:54.043Z,100.00
2022-12-29T00:03:56.958Z,100.00
2022-12-29T00:06:59.545Z,100.00
2022-12-29T00:10:02.494Z,100.00
2022-12-29T00:13:23.591Z,100.00
2022-12-29T00:16:26.908Z,100.00
2022-12-29T00:19:48.605Z,100.00
2022-12-29T00:23:10.008Z,100.00
2022-12-29T00:26:33.913Z,100.00
2022-12-29T00:29:55.544Z,100.00
2022-12-29T00:33:16.975Z,100.00
2022-12-29T00:36:24.822Z,100.00
2022-12-29T00:39:46.151Z,100.00
2022-12-29T00:43:07.749Z,100.00
2022-12-29T00:46:15.832Z,100.00
2022-12-29T00:49:31.397Z,100.00
2022-12-29T00:52:33.867Z,100.00
2022-12-29T00:55:40.194Z,100.00
2022-12-29T00:58:43.401Z,100.00
2022-12-29T01:01:47.308Z,100.00
2022-12-29T01:04:50.174Z,100.00
2022-12-29T01:07:53.109Z,100.00
2022-12-29T01:11:03.800Z,100.00
2022-12-29T01:14:07.436Z,100.00
2022-12-29T01:17:09.966Z,100.00
2022-12-29T01:20:13.091Z,100.00
2022-12-29T01:23:16.818Z,100.00
2022-12-29T01:26:21.633Z,100.00
2022-12-29T01:29:24.165Z,100.00
2022-12-29T01:32:26.960Z,100.00
2022-12-29T01:35:29.505Z,100.00
2022-12-29T01:38:34.636Z,100.00
2022-12-29T01:41:37.214Z,100.00
2022-12-29T01:44:51.256Z,100.00
2022-12-29T01:47:56.828Z,100.00
2022-12-29T01:50:59.776Z,100.00
2022-12-29T01:54:04.695Z,100.00
2022-12-29T01:57:12.171Z,100.00
2022-12-29T02:00:15.048Z,100.00
2022-12-29T02:03:18.726Z,100.00
2022-12-29T02:06:24.474Z,100.00
2022-12-29T02:09:27.563Z,100.00
2022-12-29T02:12:30.263Z,100.00
2022-12-29T02:16:12.819Z,100.00
2022-12-29T02:19:46.816Z,100.00
2022-12-29T02:22:49.601Z,100.00
2022-12-29T02:26:15.322Z,100.00
2022-12-29T02:29:41.415Z,100.00
2022-12-29T02:33:24.935Z,100.00
2022-12-29T02:37:09.270Z,100.00
2022-12-29T02:40:25.828Z,100.00
2022-12-29T02:43:39.589Z,100.00
2022-12-29T02:46:46.261Z,100.00
2022-12-29T02:49:55.617Z,100.00
2022-12-29T02:53:11.275Z,100.00
2022-12-29T02:56:14.125Z,100.00
2022-12-29T02:59:18.065Z,100.00
2022-12-29T03:02:31.234Z,100.00
2022-12-29T03:05:46.952Z,100.00
2022-12-29T03:09:19.145Z,100.00
2022-12-29T03:12:46.448Z,100.00
2022-12-29T03:16:04.818Z,100.00
2022-12-29T03:19:20.157Z,100.00
2022-12-29T03:22:31.846Z,100.00
2022-12-29T03:25:37.059Z,100.00
2022-12-29T03:28:46.068Z,100.00
2022-12-29T03:31:53.027Z,100.00
2022-12-29T03:34:56.426Z,100.00
2022-12-29T03:38:40.969Z,100.00
2022-12-29T03:41:45.642Z,100.00
2022-12-29T03:44:48.673Z,100.00
2022-12-29T03:47:52.915Z,100.00
2022-12-29T03:50:55.610Z,100.00
2022-12-29T03:53:58.872Z,100.00
2022-12-29T03:57:01.625Z,100.00
2022-12-29T04:00:06.239Z,100.00
2022-12-29T04:03:17.552Z,100.00
2022-12-29T04:06:21.509Z,100.00
2022-12-29T04:09:24.548Z,100.00
2022-12-29T04:12:28.329Z,100.00
2022-12-29T04:15:30.912Z,100.00
2022-12-29T04:18:33.896Z,100.00
2022-12-29T04:21:37.097Z,100.00
2022-12-29T04:24:40.316Z,100.00
2022-12-29T04:27:42.956Z,100.00
2022-12-29T04:30:48.442Z,100.00
2022-12-29T04:33:51.271Z,100.00
2022-12-29T04:36:54.156Z,100.00
2022-12-29T04:39:57.035Z,100.00
2022-12-29T04:43:00.033Z,100.00
2022-12-29T04:46:02.800Z,100.00
2022-12-29T04:49:09.534Z,100.00
2022-12-29T04:52:13.324Z,100.00
2022-12-29T04:55:16.328Z,100.00
2022-12-29T04:58:23.011Z,100.00
2022-12-29T05:01:27.706Z,100.00
2022-12-29T05:04:30.381Z,100.00
2022-12-29T05:07:34.507Z,100.00
2022-12-29T05:10:37.220Z,100.00
2022-12-29T05:13:40.795Z,100.00
2022-12-29T05:16:44.278Z,100.00
2022-12-29T05:19:47.260Z,100.00
2022-12-29T05:22:50.117Z,100.00
2022-12-29T05:25:53.143Z,100.00
2022-12-29T05:28:55.780Z,100.00
2022-12-29T05:31:58.976Z,100.00
2022-12-29T05:35:01.561Z,100.00
2022-12-29T05:38:05.220Z,100.00
2022-12-29T05:41:07.958Z,100.00
2022-12-29T05:44:12.317Z,100.00
2022-12-29T05:47:15.203Z,100.00
2022-12-29T05:50:19.207Z,100.00
2022-12-29T05:53:30.055Z,100.00
2022-12-29T05:56:33.290Z,100.00
2022-12-29T05:59:37.080Z,100.00
2022-12-29T06:02:40.841Z,100.00
2022-12-29T06:05:46.661Z,100.00
2022-12-29T06:08:50.759Z,100.00
2022-12-29T06:11:54.654Z,100.00
2022-12-29T06:14:57.554Z,100.00
2022-12-29T06:18:00.600Z,100.00
2022-12-29T06:21:04.790Z,100.00
2022-12-29T06:24:08.533Z,100.00
2022-12-29T06:27:12.806Z,100.00
2022-12-29T06:30:16.030Z,100.00
2022-12-29T06:33:19.239Z,100.00
2022-12-29T06:36:22.321Z,100.00
2022-12-29T06:39:25.126Z,100.00
2022-12-29T06:42:33.501Z,100.00
2022-12-29T06:45:40.287Z,100.00
2022-12-29T06:48:43.436Z,100.00
2022-12-29T06:51:46.566Z,100.00
2022-12-29T06:54:49.354Z,100.00
2022-12-29T06:57:51.842Z,100.00
2022-12-29T07:00:54.686Z,100.00
2022-12-29T07:03:58.531Z,100.00
2022-12-29T07:07:01.342Z,100.00
2022-12-29T07:10:04.492Z,100.00
2022-12-29T07:13:08.912Z,100.00
2022-12-29T07:16:11.738Z,100.00
2022-12-29T07:19:14.754Z,100.00
2022-12-29T07:22:17.477Z,100.00
2022-12-29T07:25:20.650Z,100.00
2022-12-29T07:28:23.209Z,100.00
2022-12-29T07:31:26.236Z,100.00
2022-12-29T07:34:28.771Z,100.00
2022-12-29T07:37:31.587Z,100.00
2022-12-29T07:40:37.473Z,100.00
2022-12-29T07:43:40.318Z,100.00
2022-12-29T07:46:54.969Z,100.00
2022-12-29T07:50:00.067Z,100.00
2022-12-29T07:53:03.612Z,100.00
2022-12-29T07:56:07.124Z,100.00
2022-12-29T07:59:09.707Z,100.00
2022-12-29T08:02:13.115Z,100.00
2022-12-29T08:05:16.598Z,100.00
2022-12-29T08:08:19.164Z,100.00
2022-12-29T08:11:21.914Z,100.00
2022-12-29T08:14:24.760Z,100.00
2022-12-29T08:17:27.568Z,100.00
2022-12-29T08:20:30.219Z,100.00
2022-12-29T08:23:33.268Z,100.00
2022-12-29T08:26:36.052Z,100.00
2022-12-29T08:29:38.935Z,100.00
2022-12-29T08:32:41.456Z,100.00
2022-12-29T08:35:44.452Z,100.00
2022-12-29T08:38:47.139Z,100.00
2022-12-29T08:41:50.051Z,100.00
2022-12-29T08:44:52.571Z,100.00
2022-12-29T08:47:55.394Z,100.00
2022-12-29T08:50:57.991Z,100.00
2022-12-29T08:54:01.097Z,100.00
2022-12-29T08:57:03.800Z,100.00
2022-12-29T09:00:11.787Z,100.00
2022-12-29T09:03:14.784Z,100.00
2022-12-29T09:06:19.119Z,100.00
2022-12-29T09:09:22.166Z,100.00
2022-12-29T09:12:25.039Z,100.00
2022-12-29T09:15:27.622Z,100.00
2022-12-29T09:18:30.522Z,100.00
2022-12-29T09:21:33.235Z,100.00
2022-12-29T09:24:36.120Z,100.00
2022-12-29T09:27:38.742Z,100.00
2022-12-29T09:30:42.691Z,100.00
2022-12-29T09:33:45.792Z,100.00
2022-12-29T09:36:48.760Z,100.00
2022-12-29T09:39:54.571Z,100.00
2022-12-29T09:43:24.872Z,100.00
2022-12-29T09:46:29.862Z,100.00
2022-12-29T09:49:43.403Z,100.00
2022-12-29T09:52:52.315Z,100.00
2022-12-29T09:55:58.462Z,100.00
2022-12-29T09:59:17.378Z,100.00
2022-12-29T10:02:38.845Z,100.00
2022-12-29T10:05:51.889Z,100.00
2022-12-29T10:09:13.591Z,100.00
2022-12-29T10:12:21.467Z,100.00
2022-12-29T10:16:09.560Z,100.00
2022-12-29T10:19:47.836Z,100.00
2022-12-29T10:23:16.074Z,100.00
2022-12-29T10:26:21.635Z,100.00
2022-12-29T10:29:29.351Z,100.00
2022-12-29T10:32:36.395Z,100.00
2022-12-29T10:35:41.506Z,100.00
2022-12-29T10:39:06.261Z,100.00
2022-12-29T10:42:20.333Z,100.00
2022-12-29T10:45:25.468Z,100.00
2022-12-29T10:48:37.517Z,100.00
2022-12-29T10:51:43.330Z,100.00
2022-12-29T10:55:04.176Z,100.00
2022-12-29T10:58:08.533Z,100.00
2022-12-29T11:01:12.658Z,100.00
2022-12-29T11:04:46.640Z,100.00
2022-12-29T11:07:51.355Z,100.00
2022-12-29T11:11:09.598Z,100.00
2022-12-29T11:14:19.220Z,100.00
2022-12-29T11:17:21.973Z,100.00
2022-12-29T11:20:39.421Z,100.00
2022-12-29T11:23:42.953Z,100.00
2022-12-29T11:26:45.786Z,100.00
2022-12-29T11:29:49.746Z,100.00
2022-12-29T11:32:54.447Z,100.00
2022-12-29T11:36:13.386Z,100.00
2022-12-29T11:39:40.441Z,100.00
2022-12-29T11:42:49.517Z,100.00
2022-12-29T11:45:53.696Z,100.00
2022-12-29T11:48:59.726Z,100.00
2022-12-29T11:52:02.324Z,100.00
2022-12-29T11:55:06.881Z,100.00
2022-12-29T11:58:14.262Z,100.00
2022-12-29T12:01:25.198Z,100.00
2022-12-29T12:04:37.818Z,100.00
2022-12-29T12:07:46.887Z,100.00
2022-12-29T12:11:12.601Z,100.00
2022-12-29T12:14:20.489Z,99.85
2022-12-29T12:17:38.323Z,98.73
2022-12-29T12:20:51.660Z,97.96
2022-12-29T12:24:06.535Z,98.31
2022-12-29T12:27:20.475Z,98.52
2022-12-29T12:30:25.591Z,98.08
2022-12-29T12:33:55.554Z,98.41
2022-12-29T12:37:01.279Z,98.88
2022-12-29T12:40:08.473Z,97.58
2022-12-29T12:43:38.717Z,96.08
2022-12-29T12:46:54.219Z,94.42
2022-12-29T12:50:06.244Z,94.05
2022-12-29T12:53:28.588Z,88.43
2022-12-29T12:56:40.351Z,90.38
2022-12-29T12:59:53.371Z,90.70
2022-12-29T13:03:13.745Z,90.44
2022-12-29T13:06:32.837Z,91.75
2022-12-29T13:09:41.979Z,94.09
2022-12-29T13:13:03.202Z,94.85
2022-12-29T13:16:43.236Z,96.95
2022-12-29T13:20:06.989Z,98.62
2022-12-29T13:23:28.864Z,100.00
2022-12-29T13:26:47.102Z,100.00
2022-12-29T13:30:13.990Z,100.00
2022-12-29T13:33:28.796Z,100.00
2022-12-29T13:36:46.648Z,100.00
2022-12-29T13:39:52.821Z,100.00
2022-12-29T13:42:57.233Z,100.00
2022-12-29T13:46:09.025Z,100.00
2022-12-29T13:49:23.192Z,100.00
2022-12-29T13:53:02.572Z,100.00
2022-12-29T13:56:22.160Z,100.00
2022-12-29T13:59:41.812Z,100.00
2022-12-29T14:02:52.204Z,100.00
2022-12-29T14:06:18.394Z,100.00
2022-12-29T14:09:35.490Z,100.00
2022-12-29T14:12:43.676Z,100.00
2022-12-29T14:15:52.482Z,100.00
2022-12-29T14:18:58.320Z,100.00
2022-12-29T14:22:03.880Z,100.00
2022-12-29T14:25:08.942Z,100.00
2022-12-29T14:28:25.358Z,100.00
2022-12-29T14:31:31.004Z,100.00
2022-12-29T14:34:39.801Z,100.00
2022-12-29T14:37:42.669Z,100.00
2022-12-29T14:40:45.905Z,100.00
2022-12-29T14:44:19.695Z,100.00
2022-12-29T14:47:31.068Z,100.00
2022-12-29T14:50:42.549Z,100.00
2022-12-29T14:53:48.688Z,100.00
2022-12-29T14:56:51.529Z,100.00
2022-12-29T14:59:56.648Z,100.00
2022-12-29T15:03:08.266Z,100.00
2022-12-29T15:06:12.728Z,100.00
2022-12-29T15:09:29.483Z,100.00
2022-12-29T15:12:36.690Z,100.00
2022-12-29T15:15:39.687Z,100.00
2022-12-29T15:18:43.632Z,100.00
2022-12-29T15:21:47.218Z,100.00
2022-12-29T15:24:53.091Z,100.00
2022-12-29T15:28:02.888Z,100.00
2022-12-29T15:31:07.641Z,100.00
2022-12-29T15:34:13.826Z,100.00
2022-12-29T15:37:28.471Z,100.00
2022-12-29T15:40:32.892Z,100.00
2022-12-29T15:43:47.139Z,100.00
2022-12-29T15:46:50.388Z,100.00
2022-12-29T15:50:03.372Z,100.00
2022-12-29T15:53:11.656Z,100.00
2022-12-29T15:56:14.371Z,100.00
2022-12-29T15:59:28.803Z,100.00
2022-12-29T16:02:32.386Z,100.00
2022-12-29T16:05:37.046Z,100.00
2022-12-29T16:08:41.161Z,100.00
2022-12-29T16:11:54.229Z,100.00
2022-12-29T16:15:01.851Z,100.00
2022-12-29T16:18:04.805Z,100.00
2022-12-29T16:21:17.923Z,100.00
2022-12-29T16:24:23.669Z,100.00
2022-12-29T16:27:34.512Z,100.00
2022-12-29T16:30:37.481Z,100.00
2022-12-29T16:33:46.855Z,100.00
2022-12-29T16:37:22.050Z,100.00
2022-12-29T16:40:33.497Z,100.00
2022-12-29T16:43:42.735Z,100.00
2022-12-29T16:46:59.895Z,100.00
2022-12-29T16:50:16.572Z,100.00
2022-12-29T16:53:22.111Z,100.00
2022-12-29T16:56:28.188Z,100.00
2022-12-29T16:59:39.247Z,100.00
2022-12-29T17:02:46.100Z,100.00
2022-12-29T17:05:54.099Z,100.00
2022-12-29T17:09:00.771Z,100.00
2022-12-29T17:12:10.711Z,100.00
2022-12-29T17:15:28.039Z,100.00
2022-12-29T17:18:31.000Z,100.00
2022-12-29T17:21:35.228Z,100.00
2022-12-29T17:24:38.321Z,100.00
2022-12-29T17:27:44.573Z,100.00
2022-12-29T17:30:47.834Z,100.00
2022-12-29T17:33:50.666Z,100.00
2022-12-29T17:36:53.202Z,100.00
2022-12-29T17:39:56.071Z,100.00
2022-12-29T17:42:59.681Z,100.00
2022-12-29T17:46:02.582Z,100.00
2022-12-29T17:49:06.314Z,100.00
2022-12-29T17:52:10.152Z,100.00
2022-12-29T17:55:18.607Z,100.00
2022-12-29T17:58:29.411Z,100.00
2022-12-29T18:01:36.215Z,100.00
2022-12-29T18:04:41.018Z,100.00
2022-12-29T18:07:43.530Z,100.00
2022-12-29T18:10:46.514Z,100.00
2022-12-29T18:13:49.086Z,100.00
2022-12-29T18:16:51.870Z,100.00
2022-12-29T18:19:55.663Z,100.00
2022-12-29T18:22:59.196Z,100.00
2022-12-29T18:26:25.507Z,100.00
2022-12-29T18:29:30.049Z,100.00
2022-12-29T18:32:32.725Z,100.00
2022-12-29T18:35:41.589Z,100.00
2022-12-29T18:38:44.367Z,100.00
2022-12-29T18:41:47.311Z,100.00
2022-12-29T18:44:50.635Z,100.00
2022-12-29T18:47:53.554Z,100.00
2022-12-29T18:50:56.614Z,100.00
2022-12-29T18:54:00.687Z,100.00
2022-12-29T18:57:03.287Z,100.00
2022-12-29T19:00:06.949Z,100.00
2022-12-29T19:03:14.083Z,100.00
2022-12-29T19:06:17.237Z,100.00
2022-12-29T19:09:20.021Z,100.00
2022-12-29T19:12:28.202Z,100.00
2022-12-29T19:15:33.639Z,100.00
2022-12-29T19:18:45.959Z,100.00
2022-12-29T19:21:49.730Z,100.00
2022-12-29T19:24:59.633Z,100.00
2022-12-29T19:28:04.052Z,100.00
2022-12-29T19:31:07.040Z,100.00
2022-12-29T19:34:12.464Z,100.00
2022-12-29T19:37:15.343Z,100.00
2022-12-29T19:40:21.639Z,100.00
2022-12-29T19:43:24.614Z,100.00
2022-12-29T19:46:27.234Z,100.00
2022-12-29T19:49:30.431Z,100.00
2022-12-29T19:52:33.345Z,100.00
2022-12-29T19:55:36.204Z,100.00
2022-12-29T19:58:43.890Z,100.00
2022-12-29T20:01:49.912Z,100.00
2022-12-29T20:04:54.156Z,100.00
2022-12-29T20:07:57.287Z,100.00
2022-12-29T20:11:02.943Z,100.00
2022-12-29T20:14:05.493Z,100.00
2022-12-29T20:17:11.522Z,100.00
2022-12-29T20:20:14.436Z,100.00
2022-12-29T20:23:17.233Z,100.00
2022-12-29T20:26:28.186Z,100.00
2022-12-29T20:29:38.883Z,100.00
2022-12-29T20:32:41.537Z,100.00
2022-12-29T20:35:44.363Z,100.00
2022-12-29T20:38:48.073Z,100.00
2022-12-29T20:41:51.257Z,100.00
2022-12-29T20:44:53.799Z,100.00
2022-12-29T20:47:56.700Z,100.00
2022-12-29T20:51:00.510Z,100.00
2022-12-29T20:54:03.593Z,100.00
2022-12-29T20:57:06.121Z,100.00
2022-12-29T21:00:10.842Z,100.00
2022-12-29T21:03:13.622Z,100.00
2022-12-29T21:06:16.789Z,100.00
2022-12-29T21:09:20.276Z,100.00
2022-12-29T21:12:23.196Z,100.00
2022-12-29T21:15:25.712Z,100.00
2022-12-29T21:18:29.137Z,100.00
2022-12-29T21:21:31.809Z,100.00
2022-12-29T21:24:34.683Z,100.00
2022-12-29T21:27:37.221Z,100.00
2022-12-29T21:30:40.289Z,100.00
2022-12-29T21:33:42.743Z,100.00
2022-12-29T21:36:45.615Z,100.00
2022-12-29T21:39:48.178Z,100.00
2022-12-29T21:42:51.035Z,100.00
2022-12-29T21:45:53.629Z,100.00
2022-12-29T21:48:56.433Z,100.00
2022-12-29T21:51:59.163Z,100.00
2022-12-29T21:55:01.959Z,100.00
2022-12-29T21:58:23.359Z,100.00
2022-12-29T22:01:45.738Z,100.00
2022-12-29T22:05:07.503Z,100.00
2022-12-29T22:08:28.248Z,100.00
2022-12-29T22:11:49.937Z,100.00
2022-12-29T22:14:52.655Z,100.00
2022-12-29T22:17:56.016Z,100.00
2022-12-29T22:20:58.986Z,100.00
2022-12-29T22:24:01.869Z,100.00
2022-12-29T22:27:04.683Z,100.00
2022-12-29T22:30:08.438Z,100.00
2022-12-29T22:33:11.040Z,100.00
2022-12-29T22:36:14.040Z,100.00
2022-12-29T22:39:17.094Z,100.00
2022-12-29T22:42:20.023Z,100.00
2022-12-29T22:45:22.609Z,100.00
2022-12-29T22:48:25.409Z,100.00
2022-12-29T22:51:27.968Z,100.00
2022-12-29T22:54:31.146Z,100.00
2022-12-29T22:57:33.676Z,100.00
2022-12-29T23:00:36.696Z,100.00
2022-12-29T23:03:39.859Z,100.00
2022-12-29T23:06:43.062Z,100.00
2022-12-29T23:09:46.172Z,100.00
2022-12-29T23:12:49.027Z,100.00
2022-12-29T23:15:51.853Z,100.00
2022-12-29T23:18:54.682Z,100.00
2022-12-29T23:21:57.273Z,100.00
2022-12-29T23:25:00.687Z,100.00
2022-12-29T23:28:04.845Z,100.00
2022-12-29T23:31:08.127Z,100.00
2022-12-29T23:34:12.829Z,100.00
2022-12-29T23:37:15.633Z,100.00
2022-12-29T23:40:18.208Z,100.00
2022-12-29T23:43:21.260Z,100.00
2022-12-29T23:46:26.172Z,100.00
2022-12-29T23:49:28.988Z,100.00
2022-12-29T23:52:31.862Z,100.00
2022-12-29T23:55:34.761Z,100.00
2022-12-29T23:58:37.377Z,100.00
